createdAt,value
2019-05-25T00:02:11.200Z,19.12
2019-05-25T00:04:44.388Z,19.02
2019-05-25T00:07:17.863Z,17.92
2019-05-25T00:09:51.051Z,18.80
2019-05-25T00:12:24.858Z,18.30
2019-05-25T00:14:57.948Z,18.60
2019-05-25T00:17:31.245Z,18.85
2019-05-25T00:20:06.221Z,19.48
2019-05-25T00:22:39.665Z,20.12
2019-05-25T00:25:13.270Z,20.37
2019-05-25T00:27:46.671Z,21.12
2019-05-25T00:30:20.371Z,21.93
2019-05-25T00:32:53.766Z,25.17
2019-05-25T00:35:27.368Z,26.45
2019-05-25T00:38:00.859Z,26.95
2019-05-25T00:40:34.169Z,26.70
2019-05-25T00:43:07.550Z,26.55
2019-05-25T00:45:40.639Z,27.05
2019-05-25T00:48:14.243Z,26.57
2019-05-25T00:50:47.554Z,28.00
2019-05-25T00:53:21.338Z,28.32
2019-05-25T00:55:54.429Z,26.42
2019-05-25T00:58:27.725Z,28.27
2019-05-25T01:01:01.575Z,28.83
2019-05-25T01:03:35.048Z,26.93
2019-05-25T01:06:08.629Z,26.55
2019-05-25T01:08:42.121Z,25.52
2019-05-25T01:11:15.110Z,26.37
2019-05-25T01:13:48.512Z,26.10
2019-05-25T01:16:22.110Z,27.77
2019-05-25T01:18:55.403Z,28.65
2019-05-25T01:21:30.025Z,25.40
2019-05-25T01:24:04.241Z,26.37
2019-05-25T01:26:37.226Z,26.52
2019-05-25T01:29:11.239Z,26.05
2019-05-25T01:31:44.322Z,24.55
2019-05-25T01:34:17.826Z,24.30
2019-05-25T01:36:51.018Z,24.07
2019-05-25T01:39:24.419Z,24.37
2019-05-25T01:41:57.495Z,25.37
2019-05-25T01:44:31.102Z,25.15
2019-05-25T01:47:04.907Z,25.45
2019-05-25T01:49:39.019Z,24.92
2019-05-25T01:52:12.622Z,24.15
2019-05-25T01:54:59.043Z,23.77
2019-05-25T01:57:21.052Z,25.30
2019-05-25T01:59:54.239Z,24.07
2019-05-25T02:02:28.059Z,25.15
2019-05-25T02:05:01.442Z,24.02
2019-05-25T02:07:35.040Z,23.95
2019-05-25T02:10:09.011Z,24.77
2019-05-25T02:12:42.037Z,25.55
2019-05-25T02:15:15.535Z,26.60
2019-05-25T02:17:49.133Z,25.43
2019-05-25T02:20:22.225Z,26.87
2019-05-25T02:22:55.908Z,29.37
2019-05-25T02:25:29.122Z,29.37
2019-05-25T02:28:02.407Z,25.65
2019-05-25T02:30:36.152Z,26.93
2019-05-25T02:33:09.407Z,26.62
2019-05-25T02:35:42.495Z,27.27
2019-05-25T02:38:15.685Z,27.32
2019-05-25T02:40:49.837Z,28.92
2019-05-25T02:43:23.503Z,29.25
2019-05-25T02:45:57.114Z,29.67
2019-05-25T02:48:30.395Z,29.70
2019-05-25T02:51:03.720Z,27.15
2019-05-25T02:53:37.593Z,33.45
2019-05-25T02:56:11.102Z,29.12
2019-05-25T02:58:44.290Z,27.85
2019-05-25T03:01:17.482Z,27.50
2019-05-25T03:03:51.535Z,28.45
2019-05-25T03:06:25.640Z,28.38
2019-05-25T03:08:59.398Z,27.77
2019-05-25T03:11:33.883Z,28.25
2019-05-25T03:14:07.016Z,27.02
2019-05-25T03:16:40.616Z,31.45
2019-05-25T03:19:14.117Z,27.10
2019-05-25T03:21:48.334Z,27.75
2019-05-25T03:24:21.421Z,27.35
2019-05-25T03:26:55.019Z,26.93
2019-05-25T03:29:28.620Z,27.82
2019-05-25T03:32:02.037Z,26.42
2019-05-25T03:34:35.410Z,27.62
2019-05-25T03:37:08.609Z,28.60
2019-05-25T03:39:41.895Z,28.38
2019-05-25T03:42:15.190Z,30.37
2019-05-25T03:44:48.791Z,28.73
2019-05-25T03:47:22.388Z,27.77
2019-05-25T03:49:55.581Z,27.70
2019-05-25T03:52:28.980Z,28.90
2019-05-25T03:55:02.684Z,26.97
2019-05-25T03:57:35.890Z,31.75
2019-05-25T04:00:09.689Z,29.65
2019-05-25T04:02:43.445Z,29.25
2019-05-25T04:05:16.569Z,30.25
2019-05-25T04:07:49.758Z,30.23
2019-05-25T04:10:23.164Z,30.15
2019-05-25T04:12:56.307Z,28.23
2019-05-25T04:15:29.850Z,26.33
2019-05-25T04:18:03.145Z,29.55
2019-05-25T04:20:36.534Z,29.23
2019-05-25T04:23:10.234Z,28.15
2019-05-25T04:25:43.634Z,26.30
2019-05-25T04:28:16.925Z,27.70
2019-05-25T04:30:50.323Z,29.90
2019-05-25T04:33:26.481Z,27.93
2019-05-25T04:35:59.778Z,28.15
2019-05-25T04:38:33.281Z,28.02
2019-05-25T04:41:06.569Z,35.75
2019-05-25T04:43:40.063Z,32.03
2019-05-25T04:46:13.158Z,32.05
2019-05-25T04:48:46.655Z,29.98
2019-05-25T04:51:20.256Z,30.62
2019-05-25T04:53:53.994Z,33.13
2019-05-25T04:56:38.716Z,32.40
2019-05-25T04:59:02.703Z,32.48
2019-05-25T05:01:36.410Z,32.58
2019-05-25T05:04:09.707Z,32.80
2019-05-25T05:06:43.139Z,32.13
2019-05-25T05:09:16.276Z,32.60
2019-05-25T05:11:49.778Z,33.53
2019-05-25T05:14:23.378Z,32.73
2019-05-25T05:16:56.786Z,33.33
2019-05-25T05:19:29.961Z,33.00
2019-05-25T05:22:05.781Z,32.55
2019-05-25T05:24:38.193Z,35.13
2019-05-25T05:27:11.686Z,33.50
2019-05-25T05:29:44.978Z,32.45
2019-05-25T05:32:27.189Z,35.35
2019-05-25T05:34:53.876Z,33.25
2019-05-25T05:37:28.448Z,31.85
2019-05-25T05:40:02.204Z,32.23
2019-05-25T05:42:39.511Z,32.23
2019-05-25T05:45:12.875Z,30.55
2019-05-25T05:47:48.323Z,28.40
2019-05-25T05:50:21.687Z,30.02
2019-05-25T05:52:56.109Z,29.85
2019-05-25T05:55:32.847Z,28.65
2019-05-25T05:58:05.940Z,30.82
2019-05-25T06:00:39.148Z,35.95
2019-05-25T06:03:13.050Z,31.42
2019-05-25T06:05:46.455Z,30.48
2019-05-25T06:08:19.744Z,37.50
2019-05-25T06:10:53.241Z,29.72
2019-05-25T06:13:26.545Z,27.35
2019-05-25T06:15:59.724Z,28.23
2019-05-25T06:18:33.336Z,29.57
2019-05-25T06:21:06.829Z,31.50
2019-05-25T06:23:40.317Z,28.92
2019-05-25T06:26:13.921Z,29.10
2019-05-25T06:28:47.418Z,28.27
2019-05-25T06:31:20.715Z,31.10
2019-05-25T06:33:54.209Z,30.90
2019-05-25T06:36:27.811Z,29.65
2019-05-25T06:39:01.104Z,29.32
2019-05-25T06:41:34.499Z,32.45
2019-05-25T06:44:07.896Z,28.05
2019-05-25T06:46:41.597Z,30.50
2019-05-25T06:49:14.888Z,30.30
2019-05-25T06:51:48.085Z,32.98
2019-05-25T06:54:22.442Z,41.50
2019-05-25T06:56:55.984Z,40.88
2019-05-25T06:59:29.500Z,42.93
2019-05-25T07:02:03.943Z,38.80
2019-05-25T07:04:37.726Z,37.80
2019-05-25T07:07:11.121Z,35.85
2019-05-25T07:09:44.209Z,36.93
2019-05-25T07:12:17.606Z,36.48
2019-05-25T07:14:50.694Z,32.78
2019-05-25T07:17:24.084Z,31.05
2019-05-25T07:19:57.590Z,31.20
2019-05-25T07:22:30.882Z,32.93
2019-05-25T07:25:08.067Z,32.93
2019-05-25T07:27:41.149Z,31.30
2019-05-25T07:30:15.775Z,29.52
2019-05-25T07:32:54.159Z,27.85
2019-05-25T07:35:27.279Z,39.33
2019-05-25T07:38:00.397Z,39.53
2019-05-25T07:40:33.658Z,39.10
2019-05-25T07:43:06.858Z,37.98
2019-05-25T07:45:41.482Z,27.90
2019-05-25T07:48:14.461Z,24.92
2019-05-25T07:50:47.962Z,23.60
2019-05-25T07:53:21.407Z,26.20
2019-05-25T07:55:54.544Z,24.00
2019-05-25T07:58:27.734Z,25.55
2019-05-25T08:01:01.236Z,28.45
2019-05-25T08:03:34.732Z,27.67
2019-05-25T08:06:08.233Z,27.62
2019-05-25T08:08:41.631Z,26.95
2019-05-25T08:11:15.022Z,26.70
2019-05-25T08:13:48.212Z,28.02
2019-05-25T08:16:21.822Z,28.05
2019-05-25T08:18:55.012Z,25.43
2019-05-25T08:21:28.302Z,30.27
2019-05-25T08:24:01.491Z,27.70
2019-05-25T08:26:34.781Z,26.82
2019-05-25T08:29:07.978Z,25.85
2019-05-25T08:31:41.477Z,26.68
2019-05-25T08:34:14.765Z,25.70
2019-05-25T08:36:48.177Z,25.40
2019-05-25T08:39:21.665Z,24.02
2019-05-25T08:41:55.061Z,17.65
2019-05-25T08:44:29.889Z,15.90
2019-05-25T08:47:17.968Z,17.15
2019-05-25T08:49:51.345Z,17.30
2019-05-25T08:52:24.617Z,17.85
2019-05-25T08:54:58.229Z,18.62
2019-05-25T08:57:31.540Z,18.23
2019-05-25T09:00:07.056Z,18.40
2019-05-25T09:02:41.674Z,19.77
2019-05-25T09:05:15.174Z,20.00
2019-05-25T09:07:48.165Z,20.68
2019-05-25T09:10:21.665Z,18.45
2019-05-25T09:12:55.061Z,16.15
2019-05-25T09:15:28.666Z,14.07
2019-05-25T09:18:01.867Z,10.85
2019-05-25T09:20:35.343Z,12.55
2019-05-25T09:23:08.644Z,12.43
2019-05-25T09:25:42.452Z,13.25
2019-05-25T09:28:15.973Z,13.25
2019-05-25T09:30:49.339Z,15.32
2019-05-25T09:33:22.537Z,16.30
2019-05-25T09:35:55.826Z,14.90
2019-05-25T09:38:29.939Z,14.33
2019-05-25T09:41:03.232Z,17.55
2019-05-25T09:43:36.527Z,15.32
2019-05-25T09:46:10.738Z,16.35
2019-05-25T09:48:45.064Z,15.95
2019-05-25T09:51:18.350Z,17.42
2019-05-25T09:53:51.774Z,13.80
2019-05-25T09:56:25.038Z,14.55
2019-05-25T09:58:58.231Z,16.02
2019-05-25T10:01:32.139Z,17.87
2019-05-25T10:04:05.427Z,18.00
2019-05-25T10:06:38.623Z,16.67
2019-05-25T10:09:13.141Z,15.95
2019-05-25T10:11:46.435Z,16.82
2019-05-25T10:14:19.625Z,17.45
2019-05-25T10:16:52.824Z,16.52
2019-05-25T10:19:26.214Z,15.63
2019-05-25T10:21:59.814Z,16.95
2019-05-25T10:24:33.221Z,19.45
2019-05-25T10:27:06.710Z,17.92
2019-05-25T10:29:39.905Z,17.52
2019-05-25T10:32:13.501Z,20.08
2019-05-25T10:34:46.795Z,23.45
2019-05-25T10:37:20.288Z,14.73
2019-05-25T10:39:53.486Z,10.88
2019-05-25T10:42:26.986Z,16.02
2019-05-25T10:45:00.386Z,9.85
2019-05-25T10:47:33.571Z,10.20
2019-05-25T10:50:12.081Z,12.37
2019-05-25T10:52:45.573Z,11.15
2019-05-25T10:55:18.894Z,11.00
2019-05-25T10:57:52.378Z,12.37
2019-05-25T11:00:27.297Z,11.22
2019-05-25T11:03:00.810Z,11.73
2019-05-25T11:05:33.994Z,12.58
2019-05-25T11:08:07.182Z,12.78
2019-05-25T11:10:40.686Z,13.00
2019-05-25T11:13:13.875Z,13.65
2019-05-25T11:15:47.167Z,15.13
2019-05-25T11:18:20.665Z,12.90
2019-05-25T11:20:54.266Z,13.40
2019-05-25T11:23:27.572Z,12.20
2019-05-25T11:26:00.961Z,11.48
2019-05-25T11:28:34.450Z,12.68
2019-05-25T11:31:07.964Z,10.55
2019-05-25T11:33:41.328Z,12.15
2019-05-25T11:36:15.668Z,14.73
2019-05-25T11:38:48.962Z,16.12
2019-05-25T11:41:22.469Z,19.62
2019-05-25T11:43:55.751Z,21.68
2019-05-25T11:46:29.359Z,22.58
2019-05-25T11:49:02.537Z,22.48
2019-05-25T11:51:36.041Z,21.42
2019-05-25T11:54:09.788Z,22.55
2019-05-25T11:56:43.548Z,18.70
2019-05-25T11:59:16.944Z,17.05
2019-05-25T12:01:50.685Z,15.30
2019-05-25T12:04:23.950Z,14.68
2019-05-25T12:06:57.239Z,14.00
2019-05-25T12:09:30.834Z,12.33
2019-05-25T12:12:04.125Z,13.70
2019-05-25T12:14:37.224Z,14.07
2019-05-25T12:24:26.218Z,8.13
2019-05-25T12:26:59.514Z,8.03
2019-05-25T12:29:32.704Z,8.90
2019-05-25T12:32:06.003Z,7.95
2019-05-25T12:34:39.404Z,8.15
2019-05-25T12:37:12.789Z,7.08
2019-05-25T12:39:46.081Z,7.80
2019-05-25T12:42:19.276Z,6.70
2019-05-25T12:44:52.467Z,7.62
2019-05-25T12:47:25.460Z,10.20
2019-05-25T12:49:58.853Z,11.00
2019-05-25T12:52:32.452Z,7.53
2019-05-25T12:55:07.030Z,7.80
2019-05-25T12:57:39.953Z,6.58
2019-05-25T13:00:16.389Z,8.63
2019-05-25T13:02:49.822Z,6.75
2019-05-25T13:05:33.751Z,7.05
2019-05-25T13:07:58.044Z,6.53
2019-05-25T13:10:31.135Z,5.85
2019-05-25T13:13:04.538Z,5.87
2019-05-25T13:15:37.523Z,12.73
2019-05-25T13:18:11.011Z,5.78
2019-05-25T13:20:44.311Z,5.83
2019-05-25T13:23:18.417Z,6.33
2019-05-25T13:25:51.609Z,6.22
2019-05-25T13:28:24.641Z,5.70
2019-05-25T13:31:10.708Z,5.50
2019-05-25T13:33:32.691Z,5.78
2019-05-25T13:36:05.708Z,6.20
2019-05-25T13:38:38.917Z,6.15
2019-05-25T13:41:12.193Z,6.80
2019-05-25T13:43:45.891Z,7.35
2019-05-25T13:46:18.879Z,20.85
2019-05-25T13:48:52.286Z,6.40
2019-05-25T13:51:25.676Z,5.87
2019-05-25T13:53:59.157Z,6.35
2019-05-25T13:56:32.108Z,4.67
2019-05-25T14:02:40.405Z,5.30
2019-05-25T14:05:14.194Z,6.67
2019-05-25T14:07:47.484Z,6.12
2019-05-25T14:10:20.679Z,6.28
2019-05-25T14:12:53.872Z,6.12
2019-05-25T14:21:33.995Z,6.60
2019-05-25T14:24:07.497Z,6.22
2019-05-25T14:26:40.890Z,10.38
2019-05-25T14:29:14.085Z,6.45
2019-05-25T14:31:47.275Z,6.17
2019-05-25T14:34:20.977Z,6.15
2019-05-25T14:36:54.164Z,6.42
2019-05-25T14:39:27.466Z,7.20
2019-05-25T14:42:00.345Z,6.17
2019-05-25T14:47:33.345Z,7.03
2019-05-25T14:50:10.006Z,6.28
2019-05-25T14:52:43.702Z,6.08
2019-05-25T14:55:17.209Z,6.50
2019-05-25T14:57:51.381Z,7.15
2019-05-25T15:00:24.405Z,6.15
2019-05-25T15:02:57.646Z,5.78
2019-05-25T15:05:30.781Z,6.90
2019-05-25T15:08:03.652Z,6.35
2019-05-25T15:10:36.654Z,6.85
2019-05-25T15:13:09.590Z,6.35
2019-05-25T15:15:42.553Z,7.25
2019-05-25T15:18:15.551Z,6.85
2019-05-25T15:20:49.466Z,8.00
2019-05-25T15:23:22.600Z,7.67
2019-05-25T15:25:55.582Z,6.80
2019-05-25T15:28:28.444Z,6.78
2019-05-25T15:31:01.412Z,6.42
2019-05-25T15:33:34.384Z,7.17
2019-05-25T15:36:07.550Z,7.80
2019-05-25T15:38:40.586Z,9.38
2019-05-25T15:41:13.703Z,8.33
2019-05-25T15:43:46.772Z,8.35
2019-05-25T16:42:49.974Z,15.95
2019-05-25T16:45:23.180Z,18.80
2019-05-25T16:47:56.279Z,24.05
2019-05-25T16:50:30.519Z,11.35
2019-05-25T16:53:03.806Z,13.25
2019-05-25T16:55:36.954Z,18.02
2019-05-25T16:58:10.170Z,18.07
2019-05-25T17:00:44.853Z,17.85
2019-05-25T17:03:28.046Z,17.35
2019-05-25T17:05:54.473Z,14.25
2019-05-25T17:08:29.543Z,13.03
2019-05-25T17:11:02.781Z,13.22
2019-05-25T17:13:36.961Z,12.03
2019-05-25T17:16:13.238Z,11.73
2019-05-25T17:18:46.268Z,13.15
2019-05-25T17:21:19.809Z,14.28
2019-05-25T17:24:01.566Z,12.88
2019-05-25T17:26:40.237Z,12.65
2019-05-25T17:29:13.288Z,12.50
2019-05-25T17:31:46.472Z,11.28
2019-05-25T17:34:19.709Z,11.28
2019-05-25T17:36:57.540Z,14.38
2019-05-25T17:39:31.085Z,11.93
2019-05-25T17:42:08.007Z,12.40
2019-05-25T17:44:44.307Z,18.02
2019-05-25T17:47:17.629Z,14.15
2019-05-25T17:50:06.305Z,13.45
2019-05-25T17:52:37.117Z,17.17
2019-05-25T17:55:11.006Z,14.55
2019-05-25T17:57:44.150Z,15.32
2019-05-25T18:00:38.459Z,14.80
2019-05-25T18:03:11.729Z,19.32
2019-05-25T18:05:45.321Z,18.65
2019-05-25T18:08:18.537Z,20.10
2019-05-25T18:10:53.970Z,19.12
2019-05-25T18:13:29.030Z,19.37
2019-05-25T18:16:01.946Z,21.12
2019-05-25T18:18:35.339Z,22.73
2019-05-25T18:21:08.431Z,23.32
2019-05-25T18:23:41.505Z,24.47
2019-05-25T18:26:14.818Z,25.68
2019-05-25T18:28:48.045Z,27.13
2019-05-25T18:31:21.453Z,26.40
2019-05-25T18:33:55.150Z,24.43
2019-05-25T18:36:28.395Z,24.40
2019-05-25T18:39:02.534Z,24.35
2019-05-25T18:41:37.055Z,20.92
2019-05-25T18:44:10.100Z,18.75
2019-05-25T18:46:43.266Z,20.65
2019-05-25T18:49:16.699Z,17.65
2019-05-25T18:51:49.785Z,17.17
2019-05-25T18:54:23.134Z,19.20
2019-05-25T18:56:56.535Z,18.62
2019-05-25T18:59:29.686Z,19.70
2019-05-25T19:02:03.047Z,18.65
2019-05-25T19:04:44.974Z,18.42
2019-05-25T19:07:11.178Z,17.45
2019-05-25T19:09:44.228Z,19.87
2019-05-25T19:12:17.319Z,18.30
2019-05-25T19:14:50.588Z,18.02
2019-05-25T19:17:23.717Z,16.35
2019-05-25T19:19:57.105Z,18.25
2019-05-25T19:22:30.351Z,21.45
2019-05-25T19:25:11.587Z,21.82
2019-05-25T19:27:44.553Z,21.02
2019-05-25T19:30:18.416Z,20.65
2019-05-25T19:32:54.637Z,22.05
2019-05-25T19:35:27.788Z,22.52
2019-05-25T19:38:00.963Z,19.15
2019-05-25T19:40:35.170Z,19.30
2019-05-25T19:43:08.395Z,18.92
2019-05-25T19:45:41.517Z,21.15
2019-05-25T19:48:14.566Z,22.60
2019-05-25T19:50:47.712Z,25.52
2019-05-25T19:53:21.110Z,22.75
2019-05-25T19:55:54.288Z,23.25
2019-05-25T19:58:27.159Z,24.12
2019-05-25T20:01:00.297Z,22.60
2019-05-25T20:03:33.623Z,22.98
2019-05-25T20:06:06.966Z,21.95
2019-05-25T20:08:40.190Z,22.58
2019-05-25T20:11:13.446Z,29.42
2019-05-25T20:13:46.461Z,26.12
2019-05-25T20:16:19.655Z,35.78
2019-05-25T20:18:53.650Z,39.13
2019-05-25T20:21:26.649Z,40.17
2019-05-25T20:23:59.703Z,40.03
2019-05-25T20:26:33.468Z,40.50
2019-05-25T20:29:06.556Z,40.08
2019-05-25T20:31:39.723Z,37.65
2019-05-25T20:34:12.891Z,28.25
2019-05-25T20:36:46.178Z,28.92
2019-05-25T20:39:19.305Z,28.92
2019-05-25T20:41:52.386Z,26.45
2019-05-25T20:44:25.560Z,25.75
2019-05-25T20:46:59.593Z,23.62
2019-05-25T20:49:32.825Z,24.12
2019-05-25T20:52:05.871Z,26.40
2019-05-25T20:54:39.281Z,26.95
2019-05-25T20:57:12.414Z,27.02
2019-05-25T20:59:45.434Z,24.92
2019-05-25T21:02:18.713Z,27.15
2019-05-25T21:04:52.314Z,27.40
2019-05-25T21:07:25.412Z,37.67
2019-05-25T21:09:59.188Z,29.02
2019-05-25T21:12:32.340Z,26.97
2019-05-25T21:15:09.271Z,28.10
2019-05-25T21:17:42.462Z,27.02
2019-05-25T21:20:16.716Z,26.85
2019-05-25T21:22:49.801Z,27.17
2019-05-25T21:25:23.177Z,27.15
2019-05-25T21:27:56.241Z,28.55
2019-05-25T21:30:29.263Z,28.57
2019-05-25T21:33:02.293Z,28.00
2019-05-25T21:35:35.360Z,29.90
2019-05-25T21:38:08.411Z,28.60
2019-05-25T21:40:41.402Z,31.23
2019-05-25T21:43:14.447Z,31.68
2019-05-25T21:45:47.570Z,33.28
2019-05-25T21:48:20.675Z,31.60
2019-05-25T21:50:53.796Z,32.23
2019-05-25T21:53:27.040Z,31.15
2019-05-25T21:56:00.189Z,34.08
2019-05-25T21:58:33.351Z,32.70
2019-05-25T22:01:07.084Z,35.40
2019-05-25T22:03:40.990Z,32.42
2019-05-25T22:06:23.943Z,31.12
2019-05-25T22:08:48.879Z,31.77
2019-05-25T22:11:22.063Z,30.82
2019-05-25T22:13:55.124Z,32.75
2019-05-25T22:16:28.127Z,31.82
2019-05-25T22:19:01.489Z,30.97
2019-05-25T22:21:34.568Z,29.90
2019-05-25T22:24:07.675Z,31.37
2019-05-25T22:26:40.635Z,34.43
2019-05-25T22:29:13.784Z,30.85
2019-05-25T22:31:47.022Z,29.82
2019-05-25T22:34:20.131Z,29.70
2019-05-25T22:36:53.346Z,31.00
2019-05-25T22:39:26.338Z,29.82
2019-05-25T22:41:59.503Z,32.03
2019-05-25T22:44:32.811Z,30.68
2019-05-25T22:47:06.194Z,29.65
2019-05-25T22:49:39.253Z,31.48
2019-05-25T22:52:12.426Z,28.80
2019-05-25T22:54:45.686Z,30.37
2019-05-25T22:57:18.805Z,39.15
2019-05-25T22:59:52.025Z,33.60
2019-05-25T23:02:25.310Z,34.67
2019-05-25T23:04:58.577Z,33.90
2019-05-25T23:07:31.580Z,30.95
2019-05-25T23:10:09.774Z,29.42
2019-05-25T23:12:43.040Z,31.30
2019-05-25T23:15:16.123Z,29.82
2019-05-25T23:17:49.720Z,30.10
2019-05-25T23:20:23.016Z,29.00
2019-05-25T23:22:56.511Z,29.10
2019-05-25T23:25:30.014Z,28.57
2019-05-25T23:28:03.307Z,28.35
2019-05-25T23:30:37.004Z,28.20
2019-05-25T23:33:10.196Z,27.37
2019-05-25T23:35:44.285Z,28.17
2019-05-25T23:38:17.310Z,27.30
2019-05-25T23:40:50.346Z,27.45
2019-05-25T23:43:23.366Z,27.25
2019-05-25T23:45:56.428Z,28.23
2019-05-25T23:48:29.486Z,28.20
2019-05-25T23:51:02.447Z,28.23
2019-05-25T23:53:35.874Z,27.93
2019-05-25T23:56:09.091Z,28.25
2019-05-25T23:58:42.231Z,27.75
